createdAt,value
2022-11-24T00:00:54.674Z,5.10
2022-11-24T00:03:23.022Z,5.03
2022-11-24T00:05:51.343Z,4.33
2022-11-24T00:08:19.539Z,5.10
2022-11-24T00:10:47.881Z,4.97
2022-11-24T00:13:17.453Z,4.90
2022-11-24T00:15:45.736Z,4.70
2022-11-24T00:18:13.935Z,4.87
2022-11-24T00:20:42.153Z,5.57
2022-11-24T00:23:10.356Z,4.30
2022-11-24T00:25:38.545Z,4.63
2022-11-24T00:28:07.157Z,5.00
2022-11-24T00:30:36.809Z,4.90
2022-11-24T00:33:05.111Z,4.40
2022-11-24T00:35:33.354Z,4.67
2022-11-24T00:38:01.637Z,4.37
2022-11-24T00:40:34.875Z,4.90
2022-11-24T00:43:03.663Z,4.47
2022-11-24T00:45:31.908Z,4.60
2022-11-24T00:48:01.433Z,4.83
2022-11-24T00:50:29.729Z,4.93
2022-11-24T00:52:57.953Z,4.50
2022-11-24T00:55:26.228Z,4.40
2022-11-24T00:57:54.460Z,4.43
2022-11-24T01:00:22.934Z,4.33
2022-11-24T01:02:51.306Z,4.70
2022-11-24T01:05:21.129Z,4.90
2022-11-24T01:07:49.448Z,4.87
2022-11-24T01:10:18.156Z,4.40
2022-11-24T01:12:46.532Z,5.37
2022-11-24T01:15:14.730Z,5.10
2022-11-24T01:17:42.998Z,5.20
2022-11-24T01:20:11.842Z,4.90
2022-11-24T01:22:42.302Z,4.87
2022-11-24T01:25:11.301Z,4.97
2022-11-24T01:27:39.749Z,5.10
2022-11-24T01:30:08.638Z,4.53
2022-11-24T01:32:37.378Z,4.37
2022-11-24T01:35:05.629Z,4.93
2022-11-24T01:37:33.871Z,5.20
2022-11-24T01:40:03.541Z,4.53
2022-11-24T01:42:38.853Z,4.40
2022-11-24T01:45:30.127Z,4.73
2022-11-24T01:47:58.664Z,4.77
2022-11-24T01:50:27.207Z,5.70
2022-11-24T01:52:56.653Z,4.27
2022-11-24T01:55:28.757Z,4.97
2022-11-24T01:57:58.895Z,4.43
2022-11-24T02:00:27.352Z,4.33
2022-11-24T02:02:55.779Z,4.87
2022-11-24T02:05:26.905Z,4.70
2022-11-24T02:07:57.125Z,4.73
2022-11-24T02:10:26.836Z,4.33
2022-11-24T02:12:56.447Z,4.50
2022-11-24T02:15:24.714Z,4.53
2022-11-24T02:17:52.966Z,5.00
2022-11-24T02:20:21.353Z,4.30
2022-11-24T02:22:52.613Z,4.30
2022-11-24T02:25:25.662Z,4.10
2022-11-24T02:27:56.223Z,5.20
2022-11-24T02:30:24.815Z,4.20
2022-11-24T02:32:53.348Z,4.07
2022-11-24T02:35:21.695Z,4.60
2022-11-24T02:37:49.999Z,4.00
2022-11-24T02:40:20.557Z,4.00
2022-11-24T02:42:48.893Z,4.53
2022-11-24T02:45:18.616Z,4.17
2022-11-24T02:47:47.032Z,4.30
2022-11-24T02:50:15.294Z,4.77
2022-11-24T02:52:43.718Z,3.97
2022-11-24T02:55:12.014Z,4.07
2022-11-24T02:57:40.247Z,3.80
2022-11-24T03:00:09.303Z,5.00
2022-11-24T03:02:39.016Z,3.97
2022-11-24T03:05:07.607Z,3.93
2022-11-24T03:07:35.951Z,4.07
2022-11-24T03:10:04.200Z,3.70
2022-11-24T03:12:32.423Z,4.33
2022-11-24T03:15:00.615Z,5.07
2022-11-24T03:17:28.853Z,3.80
2022-11-24T03:20:04.275Z,4.03
2022-11-24T03:22:33.360Z,4.13
2022-11-24T03:25:01.611Z,3.70
2022-11-24T03:27:29.881Z,4.27
2022-11-24T03:29:58.240Z,3.90
2022-11-24T03:32:26.529Z,4.43
2022-11-24T03:34:54.764Z,4.13
2022-11-24T03:37:24.469Z,4.00
2022-11-24T03:39:52.670Z,3.90
2022-11-24T03:42:20.943Z,4.47
2022-11-24T03:44:49.109Z,4.10
2022-11-24T03:47:17.418Z,4.47
2022-11-24T03:49:45.779Z,4.03
2022-11-24T03:52:13.984Z,4.00
2022-11-24T03:54:43.598Z,3.77
2022-11-24T03:57:11.829Z,3.93
2022-11-24T03:59:40.229Z,4.47
2022-11-24T04:02:08.576Z,3.73
2022-11-24T04:04:36.820Z,4.27
2022-11-24T04:07:05.062Z,4.83
2022-11-24T04:09:33.277Z,4.27
2022-11-24T04:12:20.921Z,4.33
2022-11-24T04:14:49.212Z,4.70
2022-11-24T04:17:17.445Z,4.50
2022-11-24T04:19:45.659Z,4.00
2022-11-24T04:22:13.969Z,4.87
2022-11-24T04:24:42.660Z,3.83
2022-11-24T04:27:12.262Z,4.47
2022-11-24T04:29:40.488Z,4.70
2022-11-24T04:32:08.897Z,4.40
2022-11-24T04:34:37.436Z,4.40
2022-11-24T04:37:05.724Z,4.47
2022-11-24T04:39:34.066Z,4.37
2022-11-24T04:42:02.324Z,4.67
2022-11-24T04:44:32.610Z,4.27
2022-11-24T04:47:01.751Z,3.87
2022-11-24T04:49:30.143Z,4.30
2022-11-24T04:51:58.392Z,4.00
2022-11-24T04:54:26.629Z,4.13
2022-11-24T04:56:55.001Z,4.90
2022-11-24T04:59:23.230Z,4.43
2022-11-24T05:01:52.922Z,4.63
2022-11-24T05:04:21.470Z,4.70
2022-11-24T05:06:49.820Z,4.57
2022-11-24T05:09:18.740Z,3.50
2022-11-24T05:11:46.988Z,4.40
2022-11-24T05:14:15.261Z,4.30
2022-11-24T05:16:43.534Z,4.40
2022-11-24T05:19:13.246Z,4.10
2022-11-24T05:21:41.580Z,4.47
2022-11-24T05:24:09.976Z,4.47
2022-11-24T05:26:38.259Z,4.27
2022-11-24T05:29:06.679Z,4.17
2022-11-24T05:31:34.950Z,4.13
2022-11-24T05:34:03.463Z,4.47
2022-11-24T05:36:50.811Z,4.23
2022-11-24T05:39:19.074Z,5.60
2022-11-24T05:41:47.457Z,4.40
2022-11-24T05:44:15.653Z,4.37
2022-11-24T05:46:43.912Z,4.50
2022-11-24T05:49:12.147Z,4.40
2022-11-24T05:51:41.829Z,4.10
2022-11-24T05:54:10.053Z,4.70
2022-11-24T05:56:38.344Z,5.17
2022-11-24T05:59:09.823Z,4.20
2022-11-24T06:01:38.582Z,4.57
2022-11-24T06:04:07.353Z,5.30
2022-11-24T06:06:35.571Z,4.33
2022-11-24T06:09:05.479Z,4.80
2022-11-24T06:11:37.741Z,5.00
2022-11-24T06:14:10.969Z,4.83
2022-11-24T06:16:39.748Z,5.03
2022-11-24T06:19:08.126Z,3.93
2022-11-24T06:21:36.369Z,4.87
2022-11-24T06:24:06.316Z,4.23
2022-11-24T06:26:34.600Z,4.87
2022-11-24T06:29:02.914Z,5.03
2022-11-24T06:31:31.356Z,4.30
2022-11-24T06:34:00.751Z,4.57
2022-11-24T06:36:29.648Z,5.33
2022-11-24T06:38:57.942Z,4.90
2022-11-24T06:41:27.573Z,4.90
2022-11-24T06:43:56.128Z,4.43
2022-11-24T06:46:24.700Z,5.33
2022-11-24T06:48:53.623Z,5.67
2022-11-24T06:51:22.050Z,4.97
2022-11-24T06:53:50.532Z,4.90
2022-11-24T06:56:20.994Z,4.67
2022-11-24T06:58:51.396Z,5.47
2022-11-24T07:01:20.473Z,4.97
2022-11-24T07:03:49.086Z,5.07
2022-11-24T07:06:17.696Z,5.43
2022-11-24T07:08:46.348Z,5.13
2022-11-24T07:11:16.257Z,4.57
2022-11-24T07:13:44.958Z,5.50
2022-11-24T07:16:20.190Z,5.50
2022-11-24T07:18:49.348Z,6.70
2022-11-24T07:21:17.968Z,6.03
2022-11-24T07:23:46.224Z,6.23
2022-11-24T07:26:14.576Z,5.33
2022-11-24T07:28:42.901Z,5.67
2022-11-24T07:31:12.355Z,4.73
2022-11-24T07:33:42.600Z,5.83
2022-11-24T07:36:11.303Z,5.90
2022-11-24T07:38:39.568Z,6.37
2022-11-24T07:41:09.191Z,5.20
2022-11-24T07:43:38.020Z,6.33
2022-11-24T07:46:06.943Z,4.60
2022-11-24T07:48:35.289Z,5.93
2022-11-24T07:51:05.479Z,5.70
2022-11-24T07:53:34.126Z,5.77
2022-11-24T07:56:03.212Z,5.97
2022-11-24T07:58:33.262Z,6.33
2022-11-24T08:01:02.197Z,5.40
2022-11-24T08:03:30.819Z,4.80
2022-11-24T08:08:49.473Z,6.40
2022-11-24T08:11:18.797Z,5.53
2022-11-24T08:13:47.144Z,6.00
2022-11-24T08:16:16.756Z,5.57
2022-11-24T08:18:45.125Z,5.30
2022-11-24T08:21:14.084Z,5.23
2022-11-24T08:23:42.501Z,5.40
2022-11-24T08:26:14.224Z,5.20
2022-11-24T08:28:42.500Z,4.93
2022-11-24T08:31:11.392Z,5.57
2022-11-24T08:33:39.954Z,5.20
2022-11-24T08:36:09.246Z,5.27
2022-11-24T08:38:37.943Z,5.10
2022-11-24T08:41:07.433Z,4.83
2022-11-24T08:43:37.170Z,4.70
2022-11-24T08:46:06.804Z,5.10
2022-11-24T08:48:35.731Z,5.53
2022-11-24T08:51:08.786Z,5.00
2022-11-24T08:53:37.117Z,5.13
2022-11-24T08:56:06.047Z,4.47
2022-11-24T08:58:34.851Z,4.80
2022-11-24T09:01:07.752Z,4.90
2022-11-24T09:03:37.615Z,4.47
2022-11-24T09:06:06.076Z,4.17
2022-11-24T09:08:34.875Z,4.50
2022-11-24T09:11:03.829Z,4.77
2022-11-24T09:13:32.386Z,4.60
2022-11-24T09:16:04.979Z,4.60
2022-11-24T09:18:34.672Z,4.40
2022-11-24T09:21:09.180Z,4.50
2022-11-24T09:23:37.724Z,5.17
2022-11-24T09:26:06.781Z,6.17
2022-11-24T09:28:35.082Z,6.23
2022-11-24T09:31:03.609Z,5.53
2022-11-24T09:33:32.552Z,5.37
2022-11-24T09:36:03.523Z,5.83
2022-11-24T09:38:32.040Z,5.10
2022-11-24T09:41:09.882Z,5.10
2022-11-24T09:43:40.533Z,5.03
2022-11-24T09:46:11.553Z,5.33
2022-11-24T09:48:41.740Z,5.00
2022-11-24T09:51:13.093Z,5.43
2022-11-24T09:53:45.638Z,5.00
2022-11-24T09:56:17.981Z,5.13
2022-11-24T09:58:48.291Z,4.90
2022-11-24T10:01:18.057Z,5.50
2022-11-24T10:03:47.592Z,4.80
2022-11-24T10:06:27.771Z,5.03
2022-11-24T10:09:04.405Z,5.07
2022-11-24T10:11:36.722Z,4.63
2022-11-24T10:14:19.875Z,4.40
2022-11-24T10:16:51.432Z,4.23
2022-11-24T10:19:36.498Z,4.03
2022-11-24T10:22:16.143Z,4.73
2022-11-24T10:25:00.477Z,4.83
2022-11-24T10:27:32.429Z,5.13
2022-11-24T10:30:01.323Z,4.77
2022-11-24T10:32:32.048Z,5.20
2022-11-24T10:35:01.839Z,5.13
2022-11-24T10:37:34.325Z,5.60
2022-11-24T10:40:21.335Z,5.53
2022-11-24T10:42:58.227Z,5.83
2022-11-24T10:45:28.875Z,5.80
2022-11-24T10:47:57.146Z,6.30
2022-11-24T10:50:26.582Z,6.23
2022-11-24T10:53:02.896Z,6.60
2022-11-24T10:55:46.051Z,6.40
2022-11-24T10:58:16.966Z,6.20
2022-11-24T11:00:45.300Z,5.60
2022-11-24T11:03:17.943Z,6.00
2022-11-24T11:05:49.501Z,6.77
2022-11-24T11:08:35.764Z,5.90
2022-11-24T11:11:27.763Z,6.17
2022-11-24T11:14:03.484Z,5.60
2022-11-24T11:16:35.416Z,5.60
2022-11-24T11:19:20.206Z,5.53
2022-11-24T11:22:01.469Z,5.43
2022-11-24T11:24:30.327Z,5.87
2022-11-24T11:27:02.798Z,5.10
2022-11-24T11:35:14.040Z,4.87
2022-11-24T11:37:42.297Z,5.23
2022-11-24T11:40:14.970Z,5.20
2022-11-24T11:43:01.841Z,5.07
2022-11-24T11:45:35.575Z,4.80
2022-11-24T11:48:11.796Z,4.10
2022-11-24T11:51:14.879Z,4.60
2022-11-24T11:53:33.867Z,3.90
2022-11-24T11:56:06.414Z,3.80
2022-11-24T11:58:52.376Z,3.90
2022-11-24T12:01:31.441Z,3.53
2022-11-24T12:04:06.409Z,3.80
2022-11-24T12:06:48.109Z,3.97
2022-11-24T12:09:23.484Z,3.70
2022-11-24T12:12:00.607Z,3.93
2022-11-24T12:14:33.257Z,3.50
2022-11-24T12:17:05.254Z,3.60
2022-11-24T12:19:40.300Z,3.43
2022-11-24T12:22:11.241Z,3.27
2022-11-24T12:24:43.240Z,4.03
2022-11-24T12:27:22.604Z,3.20
2022-11-24T12:30:09.180Z,3.30
2022-11-24T12:32:58.321Z,2.83
2022-11-24T12:35:30.696Z,2.97
2022-11-24T12:38:04.736Z,3.30
2022-11-24T12:40:42.178Z,3.43
2022-11-24T12:43:18.252Z,3.00
2022-11-24T12:45:52.804Z,3.40
2022-11-24T12:48:27.546Z,3.10
2022-11-24T12:50:58.709Z,3.50
2022-11-24T12:53:28.603Z,3.40
2022-11-24T12:55:59.567Z,3.53
2022-11-24T12:58:34.229Z,2.90
2022-11-24T13:01:09.312Z,3.13
2022-11-24T13:03:44.991Z,2.77
2022-11-24T13:06:18.661Z,3.03
2022-11-24T13:08:47.349Z,3.30
2022-11-24T13:11:34.393Z,3.27
2022-11-24T13:14:04.441Z,3.30
2022-11-24T13:16:38.706Z,3.60
2022-11-24T13:19:11.015Z,2.77
2022-11-24T13:22:01.396Z,3.00
2022-11-24T13:24:31.835Z,3.50
2022-11-24T13:27:19.735Z,3.53
2022-11-24T13:29:48.547Z,3.07
2022-11-24T13:32:35.370Z,2.83
2022-11-24T13:35:05.270Z,3.50
2022-11-24T13:37:52.764Z,3.47
2022-11-24T13:40:38.674Z,3.43
2022-11-24T13:43:37.525Z,3.27
2022-11-24T13:46:05.921Z,3.20
2022-11-24T13:48:52.855Z,3.00
2022-11-24T13:51:25.226Z,3.03
2022-11-24T13:53:55.385Z,3.20
2022-11-24T13:56:25.399Z,2.83
2022-11-24T13:58:54.774Z,3.07
2022-11-24T14:01:24.106Z,3.07
2022-11-24T14:07:00.110Z,3.37
2022-11-24T14:09:37.569Z,3.30
2022-11-24T14:12:08.573Z,3.47
2022-11-24T14:14:37.118Z,3.40
2022-11-24T14:17:09.783Z,3.67
2022-11-24T14:19:38.063Z,3.17
2022-11-24T14:22:06.384Z,3.17
2022-11-24T14:24:39.963Z,4.23
2022-11-24T14:27:14.359Z,4.67
2022-11-24T14:29:54.517Z,4.67
2022-11-24T14:32:23.059Z,6.23
2022-11-24T14:34:52.225Z,4.30
2022-11-24T14:37:20.864Z,4.10
2022-11-24T14:39:50.672Z,3.53
2022-11-24T14:42:20.405Z,3.60
2022-11-24T14:44:50.412Z,3.87
2022-11-24T14:47:24.510Z,3.97
2022-11-24T14:49:56.108Z,4.13
2022-11-24T14:52:28.704Z,5.60
2022-11-24T14:55:21.309Z,4.53
2022-11-24T14:57:50.571Z,4.53
2022-11-24T15:00:20.539Z,7.23
2022-11-24T15:02:51.909Z,11.30
2022-11-24T15:05:20.866Z,4.67
2022-11-24T15:07:49.985Z,3.60
2022-11-24T15:10:29.077Z,3.50
2022-11-24T15:13:01.144Z,6.03
2022-11-24T15:15:32.278Z,6.23
2022-11-24T15:18:01.423Z,7.50
2022-11-24T15:20:32.075Z,5.37
2022-11-24T15:23:22.333Z,3.57
2022-11-24T15:25:52.534Z,5.20
2022-11-24T15:28:24.781Z,5.33
2022-11-24T15:30:53.217Z,6.13
2022-11-24T15:33:21.593Z,6.03
2022-11-24T15:35:49.918Z,6.23
2022-11-24T15:38:18.226Z,4.40
2022-11-24T15:40:47.505Z,3.60
2022-11-24T15:43:29.838Z,4.70
2022-11-24T15:45:58.166Z,5.43
2022-11-24T15:48:26.514Z,5.57
2022-11-24T15:50:55.259Z,6.13
2022-11-24T15:53:25.697Z,5.70
2022-11-24T15:55:54.351Z,6.10
2022-11-24T15:58:22.566Z,7.13
2022-11-24T16:00:53.599Z,8.63
2022-11-24T16:03:46.262Z,9.33
2022-11-24T16:06:13.323Z,8.60
2022-11-24T16:08:41.663Z,8.00
2022-11-24T16:11:09.920Z,6.47
2022-11-24T16:13:38.294Z,9.33
2022-11-24T16:16:08.820Z,7.97
2022-11-24T16:18:39.606Z,7.37
2022-11-24T16:21:08.319Z,7.50
2022-11-24T16:23:36.877Z,8.50
2022-11-24T16:26:05.238Z,7.37
2022-11-24T16:28:33.650Z,6.70
2022-11-24T16:31:01.941Z,7.43
2022-11-24T16:33:31.830Z,7.97
2022-11-24T16:36:00.241Z,5.93
2022-11-24T16:38:29.000Z,6.90
2022-11-24T16:40:57.738Z,6.37
2022-11-24T16:43:26.219Z,8.17
2022-11-24T16:46:00.753Z,10.17
2022-11-24T16:48:29.256Z,6.57
2022-11-24T16:51:06.653Z,7.27
2022-11-24T16:53:35.114Z,6.03
2022-11-24T16:56:03.767Z,6.30
2022-11-24T16:58:32.194Z,7.30
2022-11-24T17:01:04.443Z,8.53
2022-11-24T17:03:36.171Z,7.00
2022-11-24T17:06:06.900Z,7.57
2022-11-24T17:08:35.870Z,7.57
2022-11-24T17:11:07.115Z,8.83
2022-11-24T17:13:35.686Z,9.37
2022-11-24T17:16:05.468Z,9.63
2022-11-24T17:18:33.909Z,9.23
2022-11-24T17:21:07.659Z,7.90
2022-11-24T17:23:39.285Z,9.40
2022-11-24T17:26:08.432Z,9.30
2022-11-24T17:28:36.873Z,9.60
2022-11-24T17:31:08.579Z,15.20
2022-11-24T17:33:37.301Z,10.53
2022-11-24T17:36:06.193Z,14.63
2022-11-24T17:38:35.137Z,17.90
2022-11-24T17:41:05.117Z,21.90
2022-11-24T17:43:33.618Z,23.20
2022-11-24T17:46:03.481Z,13.33
2022-11-24T17:48:35.264Z,9.10
2022-11-24T17:51:04.648Z,9.33
2022-11-24T17:53:33.473Z,8.80
2022-11-24T17:56:01.811Z,8.30
2022-11-24T17:58:32.295Z,9.10
2022-11-24T18:01:00.726Z,9.03
2022-11-24T18:03:31.542Z,8.77
2022-11-24T18:05:59.930Z,8.93
2022-11-24T18:08:28.345Z,8.80
2022-11-24T18:11:04.019Z,8.10
2022-11-24T18:13:55.759Z,8.50
2022-11-24T18:16:22.319Z,7.83
2022-11-24T18:18:51.237Z,7.87
2022-11-24T18:21:20.687Z,8.07
2022-11-24T18:23:48.939Z,8.20
2022-11-24T18:26:18.045Z,8.40
2022-11-24T18:28:47.752Z,8.20
2022-11-24T18:31:18.468Z,8.50
2022-11-24T18:33:46.801Z,8.73
2022-11-24T18:36:16.274Z,8.00
2022-11-24T18:38:44.586Z,8.70
2022-11-24T18:41:13.631Z,7.87
2022-11-24T18:43:42.271Z,10.07
2022-11-24T18:46:13.334Z,10.20
2022-11-24T18:48:42.027Z,11.83
2022-11-24T18:51:14.457Z,16.00
2022-11-24T18:53:43.219Z,9.33
2022-11-24T18:56:13.912Z,8.67
2022-11-24T18:58:42.225Z,7.73
2022-11-24T19:01:12.828Z,6.73
2022-11-24T19:03:47.853Z,6.37
2022-11-24T19:06:17.472Z,6.50
2022-11-24T19:08:46.023Z,6.23
2022-11-24T19:11:20.751Z,6.57
2022-11-24T19:13:49.250Z,7.00
2022-11-24T19:16:19.698Z,6.47
2022-11-24T19:18:53.718Z,6.30
2022-11-24T19:21:22.748Z,6.20
2022-11-24T19:23:51.239Z,6.20
2022-11-24T19:26:19.845Z,6.43
2022-11-24T19:28:48.140Z,6.03
2022-11-24T19:31:17.418Z,6.33
2022-11-24T19:33:47.235Z,6.47
2022-11-24T19:36:16.711Z,6.03
2022-11-24T19:38:45.767Z,6.83
2022-11-24T19:41:15.917Z,5.97
2022-11-24T19:43:44.350Z,7.60
2022-11-24T19:46:13.501Z,8.10
2022-11-24T19:48:49.071Z,9.33
2022-11-24T19:51:20.019Z,9.70
2022-11-24T19:53:48.803Z,10.40
2022-11-24T19:56:18.469Z,8.20
2022-11-24T19:58:47.207Z,6.77
2022-11-24T20:01:16.457Z,7.03
2022-11-24T20:03:45.423Z,6.00
2022-11-24T20:06:15.110Z,6.03
2022-11-24T20:08:44.884Z,6.17
2022-11-24T20:11:13.888Z,6.23
2022-11-24T20:13:43.103Z,6.37
2022-11-24T20:16:12.152Z,6.23
2022-11-24T20:18:42.507Z,9.03
2022-11-24T20:21:12.130Z,7.13
2022-11-24T20:23:40.902Z,6.53
2022-11-24T20:26:11.345Z,5.87
2022-11-24T20:28:39.649Z,5.93
2022-11-24T20:31:08.972Z,6.30
2022-11-24T20:33:37.900Z,6.27
2022-11-24T20:36:06.967Z,5.50
2022-11-24T20:38:35.637Z,5.23
2022-11-24T20:41:08.943Z,6.47
2022-11-24T20:43:39.534Z,7.33
2022-11-24T20:46:08.855Z,6.60
2022-11-24T20:48:38.249Z,7.33
2022-11-24T20:51:07.400Z,6.30
2022-11-24T20:53:35.820Z,5.50
2022-11-24T20:56:06.037Z,6.10
2022-11-24T20:58:35.316Z,5.40
2022-11-24T21:01:09.590Z,5.50
2022-11-24T21:03:42.790Z,6.03
2022-11-24T21:06:12.183Z,5.43
2022-11-24T21:08:41.272Z,5.50
2022-11-24T21:11:11.480Z,5.47
2022-11-24T21:13:40.953Z,5.90
2022-11-24T21:16:18.027Z,6.20
2022-11-24T21:18:46.967Z,5.93
2022-11-24T21:21:15.955Z,6.27
2022-11-24T21:23:45.094Z,7.20
2022-11-24T21:26:16.916Z,7.47
2022-11-24T21:28:46.499Z,6.63
2022-11-24T21:31:15.824Z,6.10
2022-11-24T21:33:46.449Z,6.00
2022-11-24T21:36:15.471Z,5.40
2022-11-24T21:38:44.343Z,5.80
2022-11-24T21:41:14.192Z,4.97
2022-11-24T21:43:42.458Z,4.70
2022-11-24T21:46:11.985Z,4.90
2022-11-24T21:48:41.181Z,4.93
2022-11-24T21:51:13.203Z,5.17
2022-11-24T21:53:41.872Z,4.20
2022-11-24T21:56:12.897Z,4.00
2022-11-24T21:58:45.683Z,5.30
2022-11-24T22:01:14.417Z,4.50
2022-11-24T22:03:42.731Z,3.67
2022-11-24T22:06:12.300Z,4.30
2022-11-24T22:08:40.521Z,3.83
2022-11-24T22:11:09.752Z,3.90
2022-11-24T22:13:38.032Z,4.77
2022-11-24T22:16:07.602Z,4.37
2022-11-24T22:18:36.496Z,3.80
2022-11-24T22:21:05.487Z,4.50
2022-11-24T22:23:35.541Z,3.60
2022-11-24T22:26:04.407Z,3.60
2022-11-24T22:28:33.553Z,3.67
2022-11-24T22:31:04.916Z,4.40
2022-11-24T22:33:33.315Z,4.30
2022-11-24T22:36:02.015Z,4.40
2022-11-24T22:38:31.086Z,4.43
2022-11-24T22:41:03.619Z,4.83
2022-11-24T22:43:33.113Z,4.93
2022-11-24T22:46:04.953Z,4.20
2022-11-24T22:48:33.259Z,5.10
2022-11-24T22:51:05.622Z,5.23
2022-11-24T22:53:33.958Z,4.67
2022-11-24T22:56:04.186Z,5.40
2022-11-24T22:58:32.952Z,4.77
2022-11-24T23:01:05.416Z,5.43
2022-11-24T23:03:33.786Z,4.37
2022-11-24T23:06:02.350Z,4.33
2022-11-24T23:08:30.657Z,4.27
2022-11-24T23:11:03.983Z,4.03
2022-11-24T23:13:32.234Z,4.47
2022-11-24T23:16:04.187Z,4.20
2022-11-24T23:18:32.583Z,3.77
2022-11-24T23:21:05.734Z,4.03
2022-11-24T23:23:34.175Z,4.03
2022-11-24T23:26:04.134Z,3.93
2022-11-24T23:28:32.372Z,4.43
2022-11-24T23:31:04.100Z,5.30
2022-11-24T23:33:33.060Z,5.17
2022-11-24T23:36:02.533Z,4.47
2022-11-24T23:38:32.563Z,5.00
2022-11-24T23:41:01.306Z,4.33
2022-11-24T23:43:30.884Z,4.83
2022-11-24T23:46:03.020Z,4.77
2022-11-24T23:48:31.442Z,3.80
2022-11-24T23:51:04.584Z,5.00
2022-11-24T23:53:33.096Z,4.57
2022-11-24T23:56:01.639Z,3.47
2022-11-24T23:58:31.784Z,3.70
